Time;durP1;ratioP1;P1;durP2;ratioP2;P2;SDS_P1;SDS_P2;PMS_P1;PMS_P2;Temp;Humidity;BMP_temperature;BMP_pressure;BME280_temperature;BME280_humidity;BME280_pressure;Samples;Min_cycle;Max_cycle;Signal;HPM_P1;HPM_P2
2023/09/26 00:00:40;;;;;;;;;;;15.20;92.40;;;;;;5097586;28;19920;-71
2023/09/26 00:03:06;;;;;;;;;;;15.20;92.50;;;;;;5089167;28;19937;-71
2023/09/26 00:05:32;;;;;;;;;;;15.20;92.40;;;;;;5087922;28;19955;-71
2023/09/26 00:08:01;;;;;;;;;;;15.20;92.50;;;;;;5096083;28;20268;-71
2023/09/26 00:10:27;;;;;;;;;;;15.20;92.50;;;;;;5088935;28;19926;-71
2023/09/26 00:12:52;;;;;;;;;;;15.20;92.50;;;;;;5089027;28;19916;-71
2023/09/26 00:15:18;;;;;;;;;;;15.10;92.50;;;;;;5089829;28;19977;-71
2023/09/26 00:17:44;;;;;;;;;;;15.20;92.50;;;;;;5088574;28;19908;-71
2023/09/26 00:20:27;;;;;;;;;;;15.10;92.50;;;;;;5088629;28;19965;-71
2023/09/26 00:22:54;;;;;;;;;;;15.10;92.50;;;;;;5088701;28;20057;-71
2023/09/26 00:25:19;;;;;;;;;;;15.10;92.50;;;;;;5088647;28;19915;-71
2023/09/26 00:27:45;;;;;;;;;;;15.10;92.50;;;;;;5088773;28;20304;-72
2023/09/26 00:30:12;;;;;;;;;;;15.10;92.50;;;;;;5088726;28;19923;-72
2023/09/26 00:32:38;;;;;;;;;;;15.10;92.50;;;;;;5121666;28;19916;-72
2023/09/26 00:35:05;;;;;;;;;;;15.10;92.50;;;;;;5088617;28;20011;-72
2023/09/26 00:37:31;;;;;;;;;;;15.10;92.50;;;;;;5088975;28;19916;-72
2023/09/26 00:39:56;;;;;;;;;;;15.10;92.50;;;;;;5089036;28;19916;-72
2023/09/26 00:42:22;;;;;;;;;;;15.00;92.50;;;;;;5112916;28;19917;-72
2023/09/26 00:44:49;;;;;;;;;;;15.10;92.50;;;;;;5090324;28;19918;-71
2023/09/26 00:47:16;;;;;;;;;;;15.00;92.50;;;;;;5092618;28;19934;-71
2023/09/26 00:49:42;;;;;;;;;;;15.00;92.50;;;;;;5091344;28;19922;-71
2023/09/26 00:52:07;;;;;;;;;;;15.00;92.50;;;;;;5100614;28;19907;-71
2023/09/26 00:54:33;;;;;;;;;;;15.00;92.50;;;;;;5099601;28;20052;-71
2023/09/26 00:56:59;;;;;;;;;;;15.00;92.60;;;;;;5100881;28;19951;-71
2023/09/26 00:59:25;;;;;;;;;;;15.00;92.50;;;;;;5092376;28;20304;-71
2023/09/26 01:01:51;;;;;;;;;;;15.00;92.60;;;;;;5092461;28;19920;-71
2023/09/26 01:04:16;;;;;;;;;;;15.00;92.60;;;;;;5092037;28;19911;-71
2023/09/26 01:06:43;;;;;;;;;;;15.00;92.60;;;;;;5091844;28;19923;-71
2023/09/26 01:09:10;;;;;;;;;;;15.00;92.60;;;;;;5090568;28;20339;-71
2023/09/26 01:11:36;;;;;;;;;;;14.90;92.60;;;;;;5093839;28;19927;-71
2023/09/26 01:14:02;;;;;;;;;;;14.90;92.70;;;;;;5095303;28;19977;-71
2023/09/26 01:16:27;;;;;;;;;;;14.90;92.60;;;;;;5098747;28;19912;-71
2023/09/26 01:18:53;;;;;;;;;;;14.90;92.70;;;;;;5095190;28;19970;-71
2023/09/26 01:21:18;;;;;;;;;;;14.90;92.70;;;;;;5091612;28;19935;-71
2023/09/26 01:23:48;;;;;;;;;;;14.90;92.70;;;;;;5092620;28;19912;-71
2023/09/26 01:26:14;;;;;;;;;;;14.90;92.80;;;;;;5090315;28;19916;-71
2023/09/26 01:28:40;;;;;;;;;;;14.90;92.80;;;;;;5092094;28;20347;-71
2023/09/26 01:31:05;;;;;;;;;;;14.80;92.70;;;;;;5091808;28;20325;-71
2023/09/26 01:33:31;;;;;;;;;;;14.80;92.80;;;;;;5090701;28;19962;-71
2023/09/26 01:35:56;;;;;;;;;;;14.80;92.70;;;;;;5116150;27;19916;-71
2023/09/26 01:38:25;;;;;;;;;;;14.80;92.80;;;;;;5091979;28;20006;-71
2023/09/26 01:40:51;;;;;;;;;;;14.80;92.80;;;;;;5091766;28;20300;-71
2023/09/26 01:43:16;;;;;;;;;;;14.80;92.80;;;;;;5088121;28;19908;-71
2023/09/26 01:45:42;;;;;;;;;;;14.80;92.80;;;;;;5091402;28;19937;-72
2023/09/26 01:48:09;;;;;;;;;;;14.70;92.80;;;;;;5091485;28;20022;-72
2023/09/26 01:50:35;;;;;;;;;;;14.70;92.70;;;;;;5091500;28;19909;-72
2023/09/26 01:53:01;;;;;;;;;;;14.70;92.80;;;;;;5099939;28;20250;-72
2023/09/26 01:55:26;;;;;;;;;;;14.70;92.80;;;;;;5094228;28;19931;-72
2023/09/26 01:57:52;;;;;;;;;;;14.70;92.80;;;;;;5102888;28;19907;-71
2023/09/26 02:00:19;;;;;;;;;;;14.70;92.80;;;;;;5094638;28;19912;-71
2023/09/26 02:02:45;;;;;;;;;;;14.60;92.70;;;;;;5097568;28;19912;-71
2023/09/26 02:05:12;;;;;;;;;;;14.60;92.80;;;;;;5099454;28;19909;-71
2023/09/26 02:07:37;;;;;;;;;;;14.60;92.80;;;;;;5091339;28;19908;-71
2023/09/26 02:10:04;;;;;;;;;;;14.60;92.80;;;;;;5094574;28;19935;-71
2023/09/26 02:12:33;;;;;;;;;;;14.60;92.80;;;;;;5089913;28;19908;-71
2023/09/26 02:15:01;;;;;;;;;;;14.60;92.80;;;;;;5090806;28;20368;-71
2023/09/26 02:17:26;;;;;;;;;;;14.50;92.80;;;;;;5090637;28;19912;-71
2023/09/26 02:19:52;;;;;;;;;;;14.50;92.80;;;;;;5090951;28;20280;-71
2023/09/26 02:22:17;;;;;;;;;;;14.60;92.80;;;;;;5090509;28;19908;-71
2023/09/26 02:24:43;;;;;;;;;;;14.50;92.80;;;;;;5090900;28;20342;-71
2023/09/26 02:27:09;;;;;;;;;;;14.50;92.80;;;;;;5097108;28;19923;-71
2023/09/26 02:29:35;;;;;;;;;;;14.50;92.80;;;;;;5091050;28;19915;-71
2023/09/26 02:32:00;;;;;;;;;;;14.50;92.80;;;;;;5089557;28;20276;-71
2023/09/26 02:34:26;;;;;;;;;;;14.50;92.80;;;;;;5088846;28;20420;-71
2023/09/26 02:36:51;;;;;;;;;;;14.50;92.80;;;;;;5090142;28;20395;-71
2023/09/26 02:39:17;;;;;;;;;;;14.40;92.80;;;;;;5089793;28;19916;-71
2023/09/26 02:41:43;;;;;;;;;;;14.40;92.80;;;;;;5090352;28;20323;-71
2023/09/26 02:44:08;;;;;;;;;;;14.40;92.80;;;;;;5088603;28;19967;-72
2023/09/26 02:46:34;;;;;;;;;;;14.40;92.80;;;;;;5098528;28;20584;-72
2023/09/26 02:49:03;;;;;;;;;;;14.40;92.80;;;;;;5090441;28;20396;-72
2023/09/26 02:51:29;;;;;;;;;;;14.40;92.80;;;;;;5089995;28;19912;-72
2023/09/26 02:53:54;;;;;;;;;;;14.30;92.80;;;;;;5090084;28;20279;-72
2023/09/26 02:56:20;;;;;;;;;;;14.30;92.80;;;;;;5090015;28;20443;-71
2023/09/26 02:58:45;;;;;;;;;;;14.30;92.80;;;;;;5090092;28;20368;-71
2023/09/26 03:01:15;;;;;;;;;;;14.30;92.80;;;;;;5094863;28;20141;-71
2023/09/26 03:03:40;;;;;;;;;;;14.30;92.80;;;;;;5090022;28;19923;-71
2023/09/26 03:06:06;;;;;;;;;;;14.30;92.80;;;;;;5089699;28;19912;-71
2023/09/26 03:08:31;;;;;;;;;;;14.20;92.80;;;;;;5089252;28;19919;-71
2023/09/26 03:11:00;;;;;;;;;;;14.20;92.80;;;;;;5092335;28;19951;-71
2023/09/26 03:13:27;;;;;;;;;;;14.20;92.80;;;;;;5089465;28;19923;-71
2023/09/26 03:15:55;;;;;;;;;;;14.20;92.80;;;;;;5088445;28;19908;-71
2023/09/26 03:18:21;;;;;;;;;;;14.20;92.80;;;;;;5089820;28;19912;-72
2023/09/26 03:20:47;;;;;;;;;;;14.20;92.80;;;;;;5089563;28;19916;-72
2023/09/26 03:23:12;;;;;;;;;;;14.20;92.90;;;;;;5089430;28;19908;-72
2023/09/26 03:25:38;;;;;;;;;;;14.20;92.80;;;;;;5089159;28;20016;-72
2023/09/26 03:28:04;;;;;;;;;;;14.10;92.80;;;;;;5088524;28;20035;-71
2023/09/26 03:30:29;;;;;;;;;;;14.10;92.80;;;;;;5089290;28;20417;-71
2023/09/26 03:32:55;;;;;;;;;;;14.10;92.80;;;;;;5090214;28;19964;-71
2023/09/26 03:35:20;;;;;;;;;;;14.10;92.80;;;;;;5089135;28;19908;-71
2023/09/26 03:37:46;;;;;;;;;;;14.10;92.80;;;;;;5089439;28;19912;-71
2023/09/26 03:40:11;;;;;;;;;;;14.10;92.80;;;;;;5088619;28;19916;-71
2023/09/26 03:42:37;;;;;;;;;;;14.10;92.80;;;;;;5089262;28;19919;-71
2023/09/26 03:45:03;;;;;;;;;;;14.10;93.10;;;;;;5088992;28;19957;-71
2023/09/26 03:47:28;;;;;;;;;;;14.00;92.80;;;;;;5089192;28;19916;-71
2023/09/26 03:49:54;;;;;;;;;;;14.00;92.80;;;;;;5092444;28;19916;-72
2023/09/26 03:52:20;;;;;;;;;;;14.00;92.80;;;;;;5090418;28;19923;-72
2023/09/26 03:54:46;;;;;;;;;;;14.00;92.80;;;;;;5089264;28;19912;-72
2023/09/26 03:57:11;;;;;;;;;;;14.00;92.80;;;;;;5087858;28;19912;-72
2023/09/26 03:59:37;;;;;;;;;;;14.00;92.80;;;;;;5089378;28;19912;-71
2023/09/26 04:02:02;;;;;;;;;;;14.00;92.80;;;;;;5088109;28;20279;-71
2023/09/26 04:04:29;;;;;;;;;;;14.00;92.80;;;;;;5088799;28;19918;-71
2023/09/26 04:06:54;;;;;;;;;;;14.00;92.80;;;;;;5089979;28;20391;-71
2023/09/26 04:09:20;;;;;;;;;;;14.00;92.80;;;;;;5089051;28;19916;-72
2023/09/26 04:11:47;;;;;;;;;;;14.00;92.90;;;;;;5089213;28;19908;-71
2023/09/26 04:14:13;;;;;;;;;;;13.90;92.80;;;;;;5097388;28;19916;-71
2023/09/26 04:16:38;;;;;;;;;;;13.90;92.80;;;;;;5089035;28;19909;-71
2023/09/26 04:19:04;;;;;;;;;;;13.90;92.90;;;;;;5089188;28;19912;-71
2023/09/26 04:21:29;;;;;;;;;;;13.90;92.90;;;;;;5100644;28;19923;-71
2023/09/26 04:23:55;;;;;;;;;;;13.90;92.90;;;;;;5094757;28;19912;-71
2023/09/26 04:26:21;;;;;;;;;;;13.90;92.90;;;;;;5092693;28;20007;-71
2023/09/26 04:28:47;;;;;;;;;;;13.90;92.90;;;;;;5094691;28;20363;-72
2023/09/26 04:31:16;;;;;;;;;;;13.90;92.90;;;;;;5092586;28;19908;-72
2023/09/26 04:33:42;;;;;;;;;;;13.80;92.90;;;;;;5101190;28;19919;-72
2023/09/26 04:36:08;;;;;;;;;;;13.80;92.90;;;;;;5092730;28;20365;-72
2023/09/26 04:38:34;;;;;;;;;;;13.80;92.90;;;;;;5093142;28;19912;-72
2023/09/26 04:41:02;;;;;;;;;;;13.80;92.90;;;;;;5094116;28;20469;-72
2023/09/26 04:43:28;;;;;;;;;;;13.80;92.90;;;;;;5088287;28;20304;-72
2023/09/26 04:45:54;;;;;;;;;;;13.80;92.90;;;;;;5092836;28;19957;-72
2023/09/26 04:48:19;;;;;;;;;;;13.80;92.90;;;;;;5100966;28;19915;-72
2023/09/26 04:50:45;;;;;;;;;;;13.80;92.90;;;;;;5092375;28;19908;-72
2023/09/26 04:53:10;;;;;;;;;;;13.80;92.90;;;;;;5096533;28;19909;-72
2023/09/26 04:55:36;;;;;;;;;;;13.80;92.90;;;;;;5094901;28;19916;-72
2023/09/26 04:58:02;;;;;;;;;;;13.70;92.80;;;;;;5096769;28;19909;-72
2023/09/26 05:00:28;;;;;;;;;;;13.70;92.90;;;;;;5092395;28;19912;-72
2023/09/26 05:02:54;;;;;;;;;;;13.70;92.90;;;;;;5092270;28;19912;-72
2023/09/26 05:05:19;;;;;;;;;;;13.70;92.90;;;;;;5091553;28;19915;-71
2023/09/26 05:07:45;;;;;;;;;;;13.70;92.90;;;;;;5095299;28;19912;-71
2023/09/26 05:10:11;;;;;;;;;;;13.70;92.90;;;;;;5101196;28;20022;-71
2023/09/26 05:12:40;;;;;;;;;;;13.70;92.90;;;;;;5101248;28;19923;-71
2023/09/26 05:15:12;;;;;;;;;;;13.70;92.90;;;;;;5102857;28;19922;-71
2023/09/26 05:17:39;;;;;;;;;;;13.70;92.90;;;;;;5099003;28;20019;-71
2023/09/26 05:20:07;;;;;;;;;;;13.70;93.00;;;;;;5100092;28;19943;-71
2023/09/26 05:22:33;;;;;;;;;;;13.60;93.00;;;;;;5108890;28;20482;-71
2023/09/26 05:24:58;;;;;;;;;;;13.60;92.90;;;;;;5099313;28;19947;-72
2023/09/26 05:27:24;;;;;;;;;;;13.60;92.90;;;;;;5101183;28;19926;-72
2023/09/26 05:29:49;;;;;;;;;;;13.60;92.90;;;;;;5098688;28;19920;-72
2023/09/26 05:32:17;;;;;;;;;;;13.60;92.90;;;;;;5091315;28;21381;-71
2023/09/26 05:34:42;;;;;;;;;;;13.60;93.00;;;;;;5111060;28;19961;-71
2023/09/26 05:37:09;;;;;;;;;;;13.60;93.00;;;;;;5109615;28;19912;-71
2023/09/26 05:39:35;;;;;;;;;;;13.60;93.00;;;;;;5104365;28;19912;-71
2023/09/26 05:42:01;;;;;;;;;;;13.60;92.90;;;;;;5102538;28;20560;-71
2023/09/26 05:44:27;;;;;;;;;;;13.60;93.00;;;;;;5103495;28;20364;-71
2023/09/26 05:46:52;;;;;;;;;;;13.60;93.00;;;;;;5111806;28;19912;-71
2023/09/26 05:49:18;;;;;;;;;;;13.60;93.20;;;;;;5111847;27;19911;-71
2023/09/26 05:51:43;;;;;;;;;;;13.60;93.00;;;;;;5106961;28;19918;-71
2023/09/26 05:54:09;;;;;;;;;;;13.60;93.00;;;;;;5098680;28;19912;-71
2023/09/26 05:56:34;;;;;;;;;;;13.50;93.00;;;;;;5112307;28;19919;-71
2023/09/26 05:58:59;;;;;;;;;;;13.50;93.00;;;;;;5096474;28;19916;-71
2023/09/26 06:01:25;;;;;;;;;;;13.50;93.00;;;;;;5108418;28;19915;-71
2023/09/26 06:03:50;;;;;;;;;;;13.50;93.00;;;;;;5096493;28;20061;-71
2023/09/26 06:06:16;;;;;;;;;;;13.50;93.00;;;;;;5101893;28;19914;-71
2023/09/26 06:08:41;;;;;;;;;;;13.50;93.00;;;;;;5096224;28;19995;-71
2023/09/26 06:11:09;;;;;;;;;;;13.50;93.00;;;;;;5111682;28;20337;-71
2023/09/26 06:13:34;;;;;;;;;;;13.50;93.00;;;;;;5095629;28;20289;-71
2023/09/26 06:16:03;;;;;;;;;;;13.50;93.00;;;;;;5111539;28;20007;-71
2023/09/26 06:18:28;;;;;;;;;;;13.50;93.00;;;;;;5108698;28;19981;-71
2023/09/26 06:20:54;;;;;;;;;;;13.60;93.00;;;;;;5099786;28;20443;-71
2023/09/26 06:23:19;;;;;;;;;;;13.50;93.00;;;;;;5092725;28;19958;-71
2023/09/26 06:25:45;;;;;;;;;;;13.50;93.00;;;;;;5103116;28;19912;-71
2023/09/26 06:28:11;;;;;;;;;;;13.60;93.00;;;;;;5107090;28;19994;-71
2023/09/26 06:30:36;;;;;;;;;;;13.60;93.00;;;;;;5107654;28;19908;-71
2023/09/26 06:33:02;;;;;;;;;;;13.60;93.30;;;;;;5089696;28;19994;-71
2023/09/26 06:35:30;;;;;;;;;;;13.60;93.00;;;;;;5109830;28;19919;-71
2023/09/26 06:37:55;;;;;;;;;;;13.60;93.00;;;;;;5103161;28;19976;-71
2023/09/26 06:40:21;;;;;;;;;;;13.60;93.00;;;;;;5102921;28;20237;-71
2023/09/26 06:42:47;;;;;;;;;;;13.60;92.90;;;;;;5109887;28;19919;-71
2023/09/26 06:45:13;;;;;;;;;;;13.60;92.90;;;;;;5099759;28;19908;-71
2023/09/26 06:47:39;;;;;;;;;;;13.60;92.90;;;;;;5106875;28;19916;-71
2023/09/26 06:50:05;;;;;;;;;;;13.60;92.90;;;;;;5104219;28;19958;-71
2023/09/26 06:52:31;;;;;;;;;;;13.70;93.00;;;;;;5102228;28;19923;-71
2023/09/26 06:54:56;;;;;;;;;;;13.70;92.90;;;;;;5090541;28;19912;-71
2023/09/26 06:57:26;;;;;;;;;;;13.70;92.90;;;;;;5099214;28;19908;-71
2023/09/26 06:59:51;;;;;;;;;;;13.70;92.90;;;;;;5105209;28;19938;-71
2023/09/26 07:02:17;;;;;;;;;;;13.70;92.90;;;;;;5111125;28;19995;-71
2023/09/26 07:04:43;;;;;;;;;;;13.70;92.90;;;;;;5104661;28;19974;-71
2023/09/26 07:07:08;;;;;;;;;;;13.70;92.90;;;;;;5100859;28;19916;-71
2023/09/26 07:09:34;;;;;;;;;;;13.70;92.90;;;;;;5090820;28;19977;-71
2023/09/26 07:12:00;;;;;;;;;;;13.70;92.80;;;;;;5105167;28;19915;-71
2023/09/26 07:14:30;;;;;;;;;;;13.70;92.80;;;;;;5096213;28;19915;-71
2023/09/26 07:16:56;;;;;;;;;;;13.80;92.80;;;;;;5102654;28;19952;-71
2023/09/26 07:19:22;;;;;;;;;;;13.80;93.10;;;;;;5093542;28;19916;-71
2023/09/26 07:21:47;;;;;;;;;;;13.80;92.80;;;;;;5110967;28;20341;-71
2023/09/26 07:24:13;;;;;;;;;;;13.80;92.80;;;;;;5102211;28;19951;-71
2023/09/26 07:26:40;;;;;;;;;;;13.80;92.80;;;;;;5098819;28;20353;-71
2023/09/26 07:29:07;;;;;;;;;;;13.90;92.80;;;;;;5107062;28;19968;-71
2023/09/26 07:31:32;;;;;;;;;;;13.90;92.70;;;;;;5094780;28;19912;-71
2023/09/26 07:33:58;;;;;;;;;;;13.90;92.70;;;;;;5104521;28;19915;-71
2023/09/26 07:36:23;;;;;;;;;;;13.90;92.70;;;;;;5110512;28;19907;-71
2023/09/26 07:38:49;;;;;;;;;;;14.00;92.70;;;;;;5108584;28;20340;-71
2023/09/26 07:41:14;;;;;;;;;;;14.00;92.70;;;;;;5102131;28;19991;-71
2023/09/26 07:43:40;;;;;;;;;;;14.00;92.60;;;;;;5101577;28;19908;-71
2023/09/26 07:46:06;;;;;;;;;;;14.00;92.60;;;;;;5102750;28;20652;-71
2023/09/26 07:48:32;;;;;;;;;;;14.00;92.60;;;;;;5102106;28;19916;-71
2023/09/26 07:50:58;;;;;;;;;;;14.10;92.60;;;;;;5110436;28;19908;-71
2023/09/26 07:53:24;;;;;;;;;;;14.10;92.60;;;;;;5097807;28;19923;-71
2023/09/26 07:55:49;;;;;;;;;;;14.10;92.60;;;;;;5096062;28;19916;-71
2023/09/26 07:58:15;;;;;;;;;;;14.10;92.50;;;;;;5098857;28;19919;-71
2023/09/26 08:00:41;;;;;;;;;;;14.20;92.50;;;;;;5096865;28;19948;-71
2023/09/26 08:03:07;;;;;;;;;;;14.20;92.70;;;;;;5105276;28;19933;-71
2023/09/26 08:05:32;;;;;;;;;;;14.30;92.50;;;;;;5110219;28;19981;-71
2023/09/26 08:07:59;;;;;;;;;;;14.30;92.40;;;;;;5095870;28;19955;-71
2023/09/26 08:10:24;;;;;;;;;;;14.30;92.40;;;;;;5098476;28;20372;-71
2023/09/26 08:12:50;;;;;;;;;;;14.40;92.30;;;;;;5104186;28;19954;-71
2023/09/26 08:15:15;;;;;;;;;;;14.40;92.30;;;;;;5101122;28;19908;-71
2023/09/26 08:17:41;;;;;;;;;;;14.50;92.30;;;;;;5098063;28;19965;-71
2023/09/26 08:20:08;;;;;;;;;;;14.50;92.30;;;;;;5097911;28;19915;-71
2023/09/26 08:22:34;;;;;;;;;;;14.60;92.30;;;;;;5106698;28;19916;-71
2023/09/26 08:24:59;;;;;;;;;;;14.60;92.20;;;;;;5098207;28;20357;-71
2023/09/26 08:27:25;;;;;;;;;;;14.70;92.20;;;;;;5105911;28;20006;-71
2023/09/26 08:29:50;;;;;;;;;;;14.70;92.30;;;;;;5094072;28;19915;-71
2023/09/26 08:32:16;;;;;;;;;;;14.80;92.60;;;;;;5101336;28;19916;-71
2023/09/26 08:34:42;;;;;;;;;;;14.80;92.30;;;;;;5095707;28;20344;-71
2023/09/26 08:37:07;;;;;;;;;;;14.90;92.20;;;;;;5108441;28;19914;-71
2023/09/26 08:39:32;;;;;;;;;;;14.90;92.10;;;;;;5091251;28;19923;-71
2023/09/26 08:41:58;;;;;;;;;;;14.90;92.00;;;;;;5095798;28;19915;-71
2023/09/26 08:44:24;;;;;;;;;;;15.00;92.10;;;;;;5098560;28;19931;-71
2023/09/26 08:46:50;;;;;;;;;;;15.00;92.00;;;;;;5094729;28;19920;-71
2023/09/26 08:49:16;;;;;;;;;;;15.10;92.10;;;;;;5108466;28;19915;-71
2023/09/26 08:51:41;;;;;;;;;;;15.10;92.00;;;;;;5097423;28;19908;-71
2023/09/26 08:54:07;;;;;;;;;;;15.20;92.10;;;;;;5088463;28;19908;-71
2023/09/26 08:56:33;;;;;;;;;;;15.20;92.00;;;;;;5099711;28;20340;-71
2023/09/26 08:59:01;;;;;;;;;;;15.30;92.20;;;;;;5094094;28;19908;-71
2023/09/26 09:01:27;;;;;;;;;;;15.30;92.10;;;;;;5086601;28;19912;-71
2023/09/26 09:03:52;;;;;;;;;;;15.30;92.10;;;;;;5092053;28;19916;-71
2023/09/26 09:06:18;;;;;;;;;;;15.40;91.90;;;;;;5091798;28;19915;-71
2023/09/26 09:08:44;;;;;;;;;;;15.40;92.00;;;;;;5101511;28;20544;-71
2023/09/26 09:11:11;;;;;;;;;;;15.50;91.90;;;;;;5104077;28;19913;-71
2023/09/26 09:13:42;;;;;;;;;;;15.50;91.70;;;;;;5103355;28;19911;-71
2023/09/26 09:16:08;;;;;;;;;;;15.50;91.80;;;;;;5103013;28;20001;-71
2023/09/26 09:18:34;;;;;;;;;;;15.50;91.80;;;;;;5102315;28;19912;-71
2023/09/26 09:21:00;;;;;;;;;;;15.60;91.90;;;;;;5105926;28;19977;-71
2023/09/26 09:23:25;;;;;;;;;;;15.60;91.80;;;;;;5096079;28;19912;-71
2023/09/26 09:25:51;;;;;;;;;;;15.70;91.80;;;;;;5104371;28;19915;-71
2023/09/26 09:28:20;;;;;;;;;;;15.70;91.70;;;;;;5102387;28;19908;-71
2023/09/26 09:30:46;;;;;;;;;;;15.70;91.70;;;;;;5110721;28;19961;-71
2023/09/26 09:33:15;;;;;;;;;;;15.70;91.90;;;;;;5103441;27;19912;-71
2023/09/26 09:35:40;;;;;;;;;;;15.70;91.70;;;;;;5110554;28;19919;-71
2023/09/26 09:38:08;;;;;;;;;;;15.80;91.80;;;;;;5104172;27;19919;-71
2023/09/26 09:40:34;;;;;;;;;;;15.80;91.60;;;;;;5095074;28;19915;-71
2023/09/26 09:43:00;;;;;;;;;;;15.80;91.70;;;;;;5101110;28;19916;-71
2023/09/26 09:45:31;;;;;;;;;;;15.90;91.70;;;;;;5100512;28;19990;-71
2023/09/26 09:48:00;;;;;;;;;;;15.90;91.70;;;;;;5105681;28;19938;-71
2023/09/26 09:50:27;;;;;;;;;;;15.90;91.70;;;;;;5101706;28;19912;-71
2023/09/26 09:52:56;;;;;;;;;;;16.00;91.80;;;;;;5100133;28;20408;-71
2023/09/26 09:55:23;;;;;;;;;;;16.00;91.60;;;;;;5100826;28;20309;-71
2023/09/26 09:57:50;;;;;;;;;;;16.10;91.60;;;;;;5112191;28;19947;-71
2023/09/26 10:00:19;;;;;;;;;;;16.10;91.50;;;;;;5103357;28;19919;-71
2023/09/26 10:02:45;;;;;;;;;;;16.20;91.70;;;;;;5110540;28;20345;-71
2023/09/26 10:05:12;;;;;;;;;;;16.20;91.50;;;;;;5110941;28;19998;-71
2023/09/26 10:07:39;;;;;;;;;;;16.20;91.60;;;;;;5089563;28;19930;-71
2023/09/26 10:10:09;;;;;;;;;;;16.30;91.50;;;;;;5100068;28;20018;-71
2023/09/26 10:12:36;;;;;;;;;;;16.30;91.40;;;;;;5111335;28;19946;-71
2023/09/26 10:15:01;;;;;;;;;;;16.30;91.40;;;;;;5103284;28;19912;-71
2023/09/26 10:17:27;;;;;;;;;;;16.40;91.50;;;;;;5102109;28;19952;-71
2023/09/26 10:19:54;;;;;;;;;;;16.40;91.40;;;;;;5097261;28;19912;-71
2023/09/26 10:22:20;;;;;;;;;;;16.50;91.40;;;;;;5100426;28;20264;-71
2023/09/26 10:24:52;;;;;;;;;;;16.50;91.40;;;;;;5098481;28;19929;-71
2023/09/26 10:27:30;;;;;;;;;;;16.60;91.40;;;;;;5111875;27;19916;-71
2023/09/26 10:29:55;;;;;;;;;;;16.60;91.30;;;;;;5112010;28;20399;-71
2023/09/26 10:32:22;;;;;;;;;;;16.70;91.20;;;;;;5101160;28;19949;-71
2023/09/26 10:34:48;;;;;;;;;;;16.70;91.20;;;;;;5104918;28;19908;-71
2023/09/26 10:37:19;;;;;;;;;;;16.80;91.30;;;;;;5099423;28;20307;-71
2023/09/26 10:39:44;;;;;;;;;;;16.80;91.30;;;;;;5099603;28;20633;-71
2023/09/26 10:42:14;;;;;;;;;;;16.90;91.30;;;;;;5091223;28;19908;-71
2023/09/26 10:44:40;;;;;;;;;;;16.90;91.50;;;;;;5085767;28;19908;-71
2023/09/26 10:47:06;;;;;;;;;;;17.00;91.30;;;;;;5106303;28;19919;-71
2023/09/26 10:49:32;;;;;;;;;;;17.00;91.40;;;;;;5091660;28;19923;-71
2023/09/26 10:52:01;;;;;;;;;;;17.10;91.30;;;;;;5090922;28;19919;-71
2023/09/26 10:54:32;;;;;;;;;;;17.20;91.30;;;;;;5090412;28;20345;-71
2023/09/26 10:57:01;;;;;;;;;;;17.20;91.40;;;;;;5091035;28;19919;-71
2023/09/26 10:59:30;;;;;;;;;;;17.30;91.40;;;;;;5091064;28;19912;-71
2023/09/26 11:01:56;;;;;;;;;;;17.30;91.60;;;;;;5090468;28;19935;-71
2023/09/26 11:04:31;;;;;;;;;;;17.40;91.50;;;;;;5092785;28;19935;-71
2023/09/26 11:06:57;;;;;;;;;;;17.50;91.60;;;;;;5091183;28;19912;-70
2023/09/26 11:09:24;;;;;;;;;;;17.60;91.40;;;;;;5092241;28;19908;-70
2023/09/26 11:11:49;;;;;;;;;;;17.70;91.60;;;;;;5098705;28;19935;-70
2023/09/26 11:14:15;;;;;;;;;;;17.80;91.70;;;;;;5096923;28;19912;-70
2023/09/26 11:16:41;;;;;;;;;;;17.90;91.50;;;;;;5090196;28;19975;-70
2023/09/26 11:19:09;;;;;;;;;;;18.00;91.50;;;;;;5089788;28;20362;-70
2023/09/26 11:21:35;;;;;;;;;;;18.10;91.40;;;;;;5088255;28;19997;-70
2023/09/26 11:24:16;;;;;;;;;;;18.20;91.20;;;;;;5089719;28;20004;-70
2023/09/26 11:26:43;;;;;;;;;;;18.30;91.50;;;;;;5081996;28;20371;-70
2023/09/26 11:29:08;;;;;;;;;;;18.40;91.70;;;;;;5095563;28;19916;-70
2023/09/26 11:31:34;;;;;;;;;;;18.50;91.80;;;;;;5089879;28;19919;-70
2023/09/26 11:33:59;;;;;;;;;;;18.50;91.90;;;;;;5089800;28;19916;-70
2023/09/26 11:36:25;;;;;;;;;;;18.50;92.10;;;;;;5090930;28;19908;-70
2023/09/26 11:38:51;;;;;;;;;;;18.60;92.20;;;;;;5096453;28;19912;-70
2023/09/26 11:41:18;;;;;;;;;;;18.70;92.40;;;;;;5097825;28;19966;-70
2023/09/26 11:43:47;;;;;;;;;;;18.80;92.60;;;;;;5096723;28;19923;-70
2023/09/26 11:46:13;;;;;;;;;;;18.80;92.40;;;;;;5097261;28;19914;-70
2023/09/26 11:48:40;;;;;;;;;;;19.00;92.50;;;;;;5081626;28;19914;-71
2023/09/26 11:51:05;;;;;;;;;;;19.00;92.50;;;;;;5089419;28;20360;-71
2023/09/26 11:53:31;;;;;;;;;;;19.10;92.60;;;;;;5096564;28;20014;-70
2023/09/26 11:55:57;;;;;;;;;;;19.20;92.50;;;;;;5104291;28;20718;-70
2023/09/26 11:58:23;;;;;;;;;;;19.30;92.50;;;;;;5091399;28;20380;-70
2023/09/26 12:00:49;;;;;;;;;;;19.30;92.70;;;;;;5088079;28;19916;-70
2023/09/26 12:03:14;;;;;;;;;;;19.40;92.60;;;;;;5103426;28;19923;-70
2023/09/26 12:05:40;;;;;;;;;;;19.40;92.60;;;;;;5089358;28;19923;-70
2023/09/26 12:08:05;;;;;;;;;;;19.50;92.70;;;;;;5092180;28;19916;-70
2023/09/26 12:10:31;;;;;;;;;;;19.60;92.70;;;;;;5097818;28;19912;-70
2023/09/26 12:12:57;;;;;;;;;;;19.70;92.60;;;;;;5095404;28;19977;-70
2023/09/26 12:15:23;;;;;;;;;;;19.70;92.50;;;;;;5096099;28;19955;-70
2023/09/26 12:17:49;;;;;;;;;;;19.80;92.70;;;;;;5089314;28;19908;-70
2023/09/26 12:20:21;;;;;;;;;;;19.90;92.70;;;;;;5105015;28;20338;-70
2023/09/26 12:22:50;;;;;;;;;;;19.90;92.60;;;;;;5103604;28;19947;-70
2023/09/26 12:25:16;;;;;;;;;;;20.00;92.60;;;;;;5089070;28;19950;-70
2023/09/26 12:27:42;;;;;;;;;;;20.10;92.80;;;;;;5096665;28;20690;-70
2023/09/26 12:30:07;;;;;;;;;;;20.10;92.70;;;;;;5096330;28;19995;-70
2023/09/26 12:32:33;;;;;;;;;;;20.20;92.70;;;;;;5097693;28;19912;-70
2023/09/26 12:34:59;;;;;;;;;;;20.30;92.80;;;;;;5088654;28;19965;-70
2023/09/26 12:37:24;;;;;;;;;;;20.30;92.50;;;;;;5098102;28;19964;-70
2023/09/26 12:39:50;;;;;;;;;;;20.40;92.70;;;;;;5095935;28;19965;-70
2023/09/26 12:42:15;;;;;;;;;;;20.40;92.60;;;;;;5094260;28;20332;-70
2023/09/26 12:44:41;;;;;;;;;;;20.50;92.60;;;;;;5093436;28;19990;-70
2023/09/26 12:47:07;;;;;;;;;;;20.50;92.80;;;;;;5095676;28;19981;-70
2023/09/26 12:49:32;;;;;;;;;;;20.60;92.80;;;;;;5091010;28;20307;-70
2023/09/26 12:51:58;;;;;;;;;;;20.60;92.80;;;;;;5092093;28;19908;-70
2023/09/26 12:54:25;;;;;;;;;;;20.70;92.90;;;;;;5090983;28;19970;-70
2023/09/26 12:56:50;;;;;;;;;;;20.70;92.70;;;;;;5090048;28;19915;-70
2023/09/26 12:59:16;;;;;;;;;;;20.80;92.50;;;;;;5090822;28;19946;-70
2023/09/26 13:01:41;;;;;;;;;;;20.80;92.90;;;;;;5081973;28;19935;-70
2023/09/26 13:04:07;;;;;;;;;;;20.80;92.90;;;;;;5091372;28;19912;-70
2023/09/26 13:06:32;;;;;;;;;;;20.90;92.70;;;;;;5088984;28;20365;-70
2023/09/26 13:08:59;;;;;;;;;;;20.90;92.80;;;;;;5097090;28;19995;-70
2023/09/26 13:11:25;;;;;;;;;;;20.90;92.90;;;;;;5091290;28;20646;-70
2023/09/26 13:13:50;;;;;;;;;;;21.00;93.00;;;;;;5078310;28;19924;-70
2023/09/26 13:16:16;;;;;;;;;;;21.00;93.00;;;;;;5087999;28;19981;-70
2023/09/26 13:18:41;;;;;;;;;;;21.00;93.00;;;;;;5091616;28;19938;-70
2023/09/26 13:21:07;;;;;;;;;;;21.00;93.00;;;;;;5083892;28;20608;-70
2023/09/26 13:23:33;;;;;;;;;;;21.10;92.90;;;;;;5090534;28;19916;-70
2023/09/26 13:25:59;;;;;;;;;;;21.20;92.90;;;;;;5099265;28;19951;-70
2023/09/26 13:28:25;;;;;;;;;;;21.20;93.00;;;;;;5084671;28;19955;-71
2023/09/26 13:30:51;;;;;;;;;;;21.20;93.00;;;;;;5099641;28;20409;-71
2023/09/26 13:33:18;;;;;;;;;;;21.20;92.90;;;;;;5074344;28;19939;-71
2023/09/26 13:35:44;;;;;;;;;;;21.30;92.70;;;;;;5090867;28;19955;-71
2023/09/26 13:38:10;;;;;;;;;;;21.20;92.50;;;;;;5086925;28;19912;-71
2023/09/26 13:40:35;;;;;;;;;;;21.30;92.40;;;;;;5099615;28;19920;-71
2023/09/26 13:43:01;;;;;;;;;;;21.30;92.70;;;;;;5088362;28;19992;-71
2023/09/26 13:45:27;;;;;;;;;;;21.40;92.70;;;;;;5087678;28;19988;-71
2023/09/26 13:47:52;;;;;;;;;;;21.30;92.60;;;;;;5083725;28;20030;-71
2023/09/26 13:50:18;;;;;;;;;;;21.40;92.60;;;;;;5083290;28;20006;-71
2023/09/26 13:52:43;;;;;;;;;;;21.40;92.50;;;;;;5090171;28;19947;-71
2023/09/26 13:55:09;;;;;;;;;;;21.40;92.40;;;;;;5091161;28;20332;-71
2023/09/26 13:57:34;;;;;;;;;;;21.50;92.20;;;;;;5088559;28;19912;-71
2023/09/26 14:00:00;;;;;;;;;;;21.50;91.90;;;;;;5085697;28;20064;-71
2023/09/26 14:02:26;;;;;;;;;;;21.60;91.80;;;;;;5090579;28;20007;-71
2023/09/26 14:04:51;;;;;;;;;;;21.60;91.50;;;;;;5097335;28;19912;-71
2023/09/26 14:07:17;;;;;;;;;;;21.70;91.60;;;;;;5091932;28;19908;-71
2023/09/26 14:09:43;;;;;;;;;;;21.60;91.50;;;;;;5091118;28;20379;-71